Terminal Aerodrome Forecast
Issued by NWS Jacksonville, FL

Home | Current Version | Previous Version | Text Only | Print | Product List | Glossary On
Versions: 1 2 3 4 5 6 7 8 9 10 11 12 13 14 15 16 17 18 19
979
FTUS42 KJAX 261734
TAFSSI
TAF
KSSI 261734Z 2618/2718 07010G20KT P6SM FEW025
     FM262200 06009KT P6SM SCT040 BKN250
     FM270600 VRB05KT P6SM SKC=

USA.gov is the U.S. government's official web portal to all federal, state and local government web resources and services.